Time;durP1;ratioP1;P1;durP2;ratioP2;P2;SDS_P1;SDS_P2;PMS_P1;PMS_P2;Temp;Humidity;BMP_temperature;BMP_pressure;BME280_temperature;BME280_humidity;BME280_pressure;Samples;Min_cycle;Max_cycle;Signal;HPM_P1;HPM_P2
2022/11/22 00:00:04;;;;;;;28.65;17.23;;;3.60;99.90;;;;;;5026527;28;20041;-72
2022/11/22 00:02:29;;;;;;;30.95;18.50;;;3.50;99.90;;;;;;5057865;28;20052;-72
2022/11/22 00:04:55;;;;;;;30.42;18.40;;;3.60;99.90;;;;;;5039119;28;20049;-72
2022/11/22 00:07:21;;;;;;;29.25;18.05;;;3.50;99.90;;;;;;5029502;28;20495;-72
2022/11/22 00:09:46;;;;;;;31.48;18.70;;;3.50;99.90;;;;;;5046076;28;20052;-72
2022/11/22 00:12:12;;;;;;;30.85;18.17;;;3.50;99.90;;;;;;5067403;28;20056;-72
2022/11/22 00:14:38;;;;;;;31.15;18.25;;;3.50;99.90;;;;;;5029734;28;20108;-72
2022/11/22 00:17:03;;;;;;;31.25;18.33;;;3.50;99.90;;;;;;5046503;28;20072;-72
2022/11/22 00:19:29;;;;;;;28.85;18.08;;;3.50;99.90;;;;;;5046318;28;20048;-72
2022/11/22 00:21:54;;;;;;;30.27;18.00;;;3.50;99.90;;;;;;5043706;28;20053;-71
2022/11/22 00:24:20;;;;;;;30.92;19.02;;;3.40;99.90;;;;;;5026337;28;20050;-72
2022/11/22 00:26:46;;;;;;;33.00;19.33;;;3.50;99.90;;;;;;5026165;28;20117;-71
2022/11/22 00:29:13;;;;;;;32.22;18.98;;;3.50;99.90;;;;;;5044654;28;20049;-71
2022/11/22 00:31:39;;;;;;;30.33;18.42;;;3.50;99.90;;;;;;5045704;28;20049;-72
2022/11/22 00:34:05;;;;;;;35.47;20.42;;;3.50;99.90;;;;;;5063732;28;20048;-72
2022/11/22 00:36:31;;;;;;;32.65;19.83;;;3.50;99.90;;;;;;5063078;28;20503;-71
2022/11/22 00:38:56;;;;;;;31.17;19.77;;;3.50;99.90;;;;;;5052185;28;20409;-72
2022/11/22 00:41:22;;;;;;;32.05;18.92;;;3.50;99.90;;;;;;5045612;28;20056;-71
2022/11/22 00:43:47;;;;;;;32.67;18.58;;;3.50;99.90;;;;;;5029215;28;20053;-71
2022/11/22 00:46:13;;;;;;;34.00;19.95;;;3.50;99.90;;;;;;5063317;28;20049;-71
2022/11/22 00:48:39;;;;;;;31.98;19.50;;;3.50;99.90;;;;;;5062680;28;20056;-71
2022/11/22 00:51:04;;;;;;;35.13;19.83;;;3.50;99.90;;;;;;5052933;28;20061;-71
2022/11/22 00:53:30;;;;;;;32.25;18.77;;;3.50;99.90;;;;;;5063406;28;20072;-71
2022/11/22 00:55:56;;;;;;;33.33;19.50;;;3.50;99.90;;;;;;5046226;28;20112;-72
2022/11/22 00:58:21;;;;;;;33.22;19.98;;;3.50;99.90;;;;;;5045594;28;20049;-71
2022/11/22 01:00:48;;;;;;;33.38;19.50;;;3.50;99.90;;;;;;5063432;28;20195;-71
2022/11/22 01:03:14;;;;;;;34.50;20.20;;;3.50;99.90;;;;;;5047256;28;20056;-71
2022/11/22 01:05:40;;;;;;;33.58;20.42;;;3.40;99.90;;;;;;5045013;28;20045;-71
2022/11/22 01:08:06;;;;;;;32.50;19.23;;;3.50;99.90;;;;;;5046478;28;20489;-71
2022/11/22 01:10:35;;;;;;;28.08;18.40;;;3.50;99.90;;;;;;5063819;28;20092;-71
2022/11/22 01:13:01;;;;;;;34.83;20.02;;;3.60;99.90;;;;;;5056935;28;20039;-71
2022/11/22 01:15:27;;;;;;;35.45;20.77;;;3.60;99.90;;;;;;5093537;28;20049;-71
2022/11/22 01:17:52;;;;;;;32.58;19.45;;;3.60;99.90;;;;;;5061365;28;20037;-72
2022/11/22 01:20:18;;;;;;;31.55;19.27;;;3.60;99.90;;;;;;5046263;28;20529;-71
2022/11/22 01:22:44;;;;;;;34.17;18.95;;;3.60;99.90;;;;;;5060640;28;20511;-71
2022/11/22 01:25:09;;;;;;;36.33;19.88;;;3.60;99.90;;;;;;5080973;28;20060;-71
2022/11/22 01:27:35;;;;;;;36.03;20.50;;;3.60;99.90;;;;;;5061612;28;20111;-71
2022/11/22 01:30:01;;;;;;;33.58;18.60;;;3.60;99.90;;;;;;5063799;28;20049;-72
2022/11/22 01:32:27;;;;;;;34.55;20.10;;;3.70;99.90;;;;;;5092275;28;20068;-71
2022/11/22 01:34:52;;;;;;;35.92;20.70;;;3.70;99.90;;;;;;5076427;28;20045;-72
2022/11/22 01:37:18;;;;;;;33.97;19.92;;;3.70;99.90;;;;;;5062708;28;20075;-71
2022/11/22 01:39:44;;;;;;;33.97;20.48;;;3.70;99.90;;;;;;5066395;28;20048;-71
2022/11/22 01:42:10;;;;;;;32.90;19.88;;;3.70;99.90;;;;;;5062582;28;20052;-71
2022/11/22 01:44:41;;;;;;;33.00;19.58;;;3.80;99.90;;;;;;5065388;28;20078;-71
2022/11/22 01:47:19;;;;;;;33.78;20.55;;;3.70;99.90;;;;;;5063749;28;20049;-71
2022/11/22 01:50:00;;;;;;;34.17;19.00;;;3.80;99.90;;;;;;5087816;28;20060;-72
2022/11/22 01:52:30;;;;;;;29.65;18.42;;;3.80;99.90;;;;;;5088819;28;20063;-71
2022/11/22 01:54:59;;;;;;;32.67;19.27;;;3.80;99.90;;;;;;5065097;28;20053;-71
2022/11/22 01:57:32;;;;;;;33.47;19.30;;;3.90;99.90;;;;;;5076773;28;20045;-71
2022/11/22 02:00:07;;;;;;;34.42;19.85;;;3.90;99.90;;;;;;5075312;28;20050;-71
2022/11/22 02:02:36;;;;;;;31.73;18.67;;;3.90;99.90;;;;;;5075221;28;20072;-71
2022/11/22 02:05:06;;;;;;;33.17;18.85;;;3.90;99.90;;;;;;5049154;28;20045;-71
2022/11/22 02:07:40;;;;;;;36.83;19.23;;;3.80;99.90;;;;;;5053946;28;20053;-71
2022/11/22 02:10:06;;;;;;;34.40;20.63;;;3.80;99.90;;;;;;5060001;28;20465;-71
2022/11/22 02:12:34;;;;;;;35.72;19.92;;;3.80;99.90;;;;;;5055055;28;20053;-71
2022/11/22 02:15:01;;;;;;;31.20;19.00;;;3.90;99.90;;;;;;5059533;28;20052;-71
2022/11/22 02:17:27;;;;;;;33.20;20.15;;;3.90;99.90;;;;;;5039591;28;20154;-72
2022/11/22 02:19:53;;;;;;;32.78;20.10;;;3.90;99.90;;;;;;5079333;28;20496;-71
2022/11/22 02:22:51;;;;;;;32.95;18.15;;;3.80;99.90;;;;;;5075279;28;20048;-71
2022/11/22 02:25:35;;;;;;;31.30;19.52;;;3.80;99.90;;;;;;5056008;28;20056;-72
2022/11/22 02:28:02;;;;;;;30.20;18.33;;;3.90;99.90;;;;;;5062503;28;20048;-71
2022/11/22 02:30:28;;;;;;;32.78;19.00;;;3.80;99.90;;;;;;5091110;28;20558;-71
2022/11/22 02:32:53;;;;;;;35.67;21.25;;;3.80;99.90;;;;;;5057382;28;20040;-71
2022/11/22 02:35:23;;;;;;;31.02;18.75;;;3.80;99.90;;;;;;5058284;28;20386;-71
2022/11/22 02:37:53;;;;;;;34.72;19.50;;;3.80;99.90;;;;;;5062250;28;20049;-71
2022/11/22 02:40:20;;;;;;;38.00;19.20;;;3.80;99.90;;;;;;5091067;28;20095;-72
2022/11/22 02:42:51;;;;;;;32.65;19.35;;;3.80;99.90;;;;;;5078811;28;20131;-71
2022/11/22 02:45:17;;;;;;;33.35;20.17;;;3.90;99.90;;;;;;5051811;28;20699;-71
2022/11/22 02:47:43;;;;;;;33.75;19.63;;;3.90;99.90;;;;;;5052577;28;20081;-71
2022/11/22 02:50:08;;;;;;;33.00;19.23;;;3.80;99.90;;;;;;5033266;28;20057;-71
2022/11/22 02:52:34;;;;;;;33.97;19.92;;;3.80;99.90;;;;;;5053238;28;20048;-71
2022/11/22 02:55:00;;;;;;;40.97;20.73;;;3.80;99.90;;;;;;5049953;28;20421;-72
2022/11/22 02:57:26;;;;;;;31.92;19.63;;;3.90;99.90;;;;;;5054303;28;20122;-72
2022/11/22 02:59:51;;;;;;;30.77;19.15;;;3.90;99.90;;;;;;5050716;28;20045;-71
2022/11/22 03:02:17;;;;;;;33.08;19.15;;;3.80;99.90;;;;;;5071172;28;20056;-72
2022/11/22 03:04:42;;;;;;;33.40;18.98;;;3.90;99.90;;;;;;5042194;28;20056;-71
2022/11/22 03:07:08;;;;;;;30.17;19.40;;;3.90;99.90;;;;;;5066242;28;20126;-71
2022/11/22 03:09:34;;;;;;;32.78;19.92;;;3.90;99.90;;;;;;5068295;28;20155;-72
2022/11/22 03:12:00;;;;;;;35.65;19.40;;;3.90;99.90;;;;;;5056172;28;20055;-71
2022/11/22 03:14:25;;;;;;;33.78;19.88;;;3.90;99.90;;;;;;5050325;28;20049;-72
2022/11/22 03:16:51;;;;;;;36.30;20.08;;;3.90;99.90;;;;;;5068259;28;20041;-72
2022/11/22 03:19:17;;;;;;;32.67;19.48;;;3.90;99.90;;;;;;5050749;28;20041;-72
2022/11/22 03:21:43;;;;;;;33.35;19.63;;;3.90;99.90;;;;;;5052969;28;20041;-72
2022/11/22 03:24:09;;;;;;;32.65;19.52;;;3.90;99.90;;;;;;5048858;28;20344;-72
2022/11/22 03:26:35;;;;;;;31.55;19.63;;;4.00;99.90;;;;;;5084994;28;20045;-71
2022/11/22 03:29:01;;;;;;;33.17;18.75;;;3.90;99.90;;;;;;5049445;28;20051;-71
2022/11/22 03:31:27;;;;;;;30.25;19.42;;;4.00;99.90;;;;;;5084966;28;20059;-71
2022/11/22 03:33:54;;;;;;;33.15;18.80;;;4.00;99.90;;;;;;5055236;28;20045;-72
2022/11/22 03:36:20;;;;;;;33.72;20.67;;;3.90;99.90;;;;;;5052212;28;20044;-72
2022/11/22 03:38:45;;;;;;;30.85;18.45;;;3.90;99.90;;;;;;5068048;28;20045;-72
2022/11/22 03:41:11;;;;;;;29.55;18.83;;;3.90;99.90;;;;;;5050566;28;20083;-72
2022/11/22 03:43:37;;;;;;;31.02;18.90;;;4.00;99.90;;;;;;5066688;28;20112;-72
2022/11/22 03:46:03;;;;;;;35.85;20.88;;;3.90;99.90;;;;;;5045569;28;20072;-72
2022/11/22 03:48:29;;;;;;;32.58;19.65;;;4.00;99.90;;;;;;5083217;28;20564;-72
2022/11/22 03:51:05;;;;;;;32.95;19.85;;;4.00;99.90;;;;;;5066161;28;20070;-72
2022/11/22 03:53:32;;;;;;;32.20;18.85;;;4.00;99.90;;;;;;5080703;28;20104;-71
2022/11/22 03:55:57;;;;;;;33.00;19.63;;;4.00;99.90;;;;;;5049271;28;20063;-71
2022/11/22 03:58:23;;;;;;;31.50;17.63;;;4.00;99.90;;;;;;5049219;28;20052;-71
2022/11/22 04:00:49;;;;;;;34.88;19.58;;;4.00;99.90;;;;;;5048355;28;20049;-72
2022/11/22 04:03:14;;;;;;;29.42;17.92;;;4.10;99.90;;;;;;5068071;28;20037;-71
2022/11/22 04:05:40;;;;;;;28.73;17.70;;;4.10;99.90;;;;;;5062635;28;20037;-72
2022/11/22 04:08:06;;;;;;;30.15;17.70;;;4.10;99.90;;;;;;5050059;28;20063;-72
2022/11/22 04:10:31;;;;;;;31.80;18.90;;;4.10;99.90;;;;;;5047711;28;20053;-72
2022/11/22 04:12:58;;;;;;;31.13;18.55;;;4.20;99.90;;;;;;5056336;28;20041;-71
2022/11/22 04:15:24;;;;;;;31.73;18.65;;;4.20;99.90;;;;;;5065931;28;20059;-71
2022/11/22 04:17:50;;;;;;;32.03;19.33;;;4.10;99.90;;;;;;5067027;28;20188;-71
2022/11/22 04:23:12;;;;;;;32.30;19.50;;;4.20;99.90;;;;;;5064746;28;20041;-71
2022/11/22 04:25:40;;;;;;;31.13;18.42;;;4.20;99.90;;;;;;5067820;28;20041;-71
2022/11/22 04:28:07;;;;;;;30.90;18.25;;;4.20;99.90;;;;;;5070799;28;20104;-71
2022/11/22 04:33:18;;;;;;;29.95;17.60;;;4.30;99.90;;;;;;5056162;28;20048;-72
2022/11/22 04:35:44;;;;;;;29.45;17.70;;;4.20;99.90;;;;;;5064873;28;20041;-72
2022/11/22 04:38:11;;;;;;;29.00;18.10;;;4.30;99.90;;;;;;5058176;28;20074;-71
2022/11/22 04:40:38;;;;;;;30.65;17.83;;;4.20;99.90;;;;;;5071474;28;20032;-71
2022/11/22 04:45:48;;;;;;;30.10;17.95;;;4.30;99.90;;;;;;5071139;28;20056;-71
2022/11/22 04:48:15;;;;;;;30.70;18.65;;;4.20;99.90;;;;;;5051464;28;20049;-71
2022/11/22 04:53:27;;;;;;;29.35;17.17;;;4.30;99.90;;;;;;5053966;28;20068;-71
2022/11/22 04:55:53;;;;;;;30.73;17.88;;;4.30;99.90;;;;;;5053958;28;20052;-71
2022/11/22 04:58:19;;;;;;;30.77;17.90;;;4.30;99.90;;;;;;5053081;28;20060;-71
2022/11/22 05:00:45;;;;;;;31.05;17.77;;;4.30;99.90;;;;;;5054335;28;20052;-71
2022/11/22 05:03:11;;;;;;;27.80;16.55;;;4.30;99.90;;;;;;5051859;28;20041;-71
2022/11/22 05:05:38;;;;;;;27.25;17.10;;;4.40;99.90;;;;;;5054314;28;20067;-71
2022/11/22 05:08:04;;;;;;;31.17;17.80;;;4.40;99.90;;;;;;5035942;28;20045;-71
2022/11/22 05:11:12;;;;;;;28.33;16.25;;;4.40;99.90;;;;;;5050106;28;20069;-71
2022/11/22 05:13:21;;;;;;;29.88;16.92;;;4.30;99.90;;;;;;5044873;28;20281;-71
2022/11/22 05:15:47;;;;;;;27.92;16.90;;;4.40;99.90;;;;;;5084276;28;20059;-72
2022/11/22 05:18:12;;;;;;;28.85;17.45;;;4.40;99.90;;;;;;5053009;28;20048;-71
2022/11/22 05:20:38;;;;;;;28.35;17.35;;;4.40;99.90;;;;;;5035040;28;20037;-71
2022/11/22 05:25:48;;;;;;;29.67;17.92;;;4.40;99.90;;;;;;5074290;28;20496;-71
2022/11/22 05:28:14;;;;;;;30.00;16.90;;;4.50;99.90;;;;;;5052098;28;20048;-71
2022/11/22 05:30:40;;;;;;;29.27;18.02;;;4.40;99.90;;;;;;5050591;28;20052;-71
2022/11/22 05:33:06;;;;;;;30.30;19.08;;;4.40;99.90;;;;;;5053085;28;20146;-72
2022/11/22 05:35:32;;;;;;;30.00;18.83;;;4.40;99.90;;;;;;5012604;28;20408;-70
2022/11/22 05:37:58;;;;;;;28.38;18.42;;;4.50;99.90;;;;;;5083609;28;20045;-70
2022/11/22 05:40:25;;;;;;;28.42;18.58;;;4.50;99.90;;;;;;5060661;28;20048;-70
2022/11/22 05:42:51;;;;;;;32.92;18.75;;;4.50;99.90;;;;;;5056623;28;20055;-70
2022/11/22 05:45:17;;;;;;;29.63;17.25;;;4.40;99.90;;;;;;5065651;28;20045;-74
2022/11/22 05:47:43;;;;;;;26.15;18.38;;;4.50;99.90;;;;;;5046287;28;20072;-71
2022/11/22 05:50:09;;;;;;;30.40;18.50;;;4.50;99.90;;;;;;5050866;28;20071;-69
2022/11/22 05:52:34;;;;;;;31.17;18.75;;;4.40;99.90;;;;;;5048874;28;20056;-69
2022/11/22 05:55:00;;;;;;;28.98;17.67;;;4.50;99.90;;;;;;5038623;28;20592;-69
2022/11/22 05:57:26;;;;;;;29.35;16.92;;;4.50;99.90;;;;;;5032558;28;20044;-70
2022/11/22 05:59:52;;;;;;;30.23;17.20;;;4.50;99.90;;;;;;5076318;28;20044;-70
2022/11/22 06:02:18;;;;;;;29.95;17.83;;;4.50;99.90;;;;;;5032508;28;20043;-69
2022/11/22 06:04:43;;;;;;;28.05;16.67;;;4.50;99.90;;;;;;5059187;28;20049;-71
2022/11/22 06:07:09;;;;;;;31.27;17.83;;;4.40;99.90;;;;;;5056620;28;20657;-67
2022/11/22 06:09:35;;;;;;;30.60;17.10;;;4.50;99.90;;;;;;5049521;28;20056;-67
2022/11/22 06:12:00;;;;;;;30.63;18.20;;;4.50;99.90;;;;;;5047171;28;22957;-66
2022/11/22 06:14:26;;;;;;;27.17;17.10;;;4.60;99.90;;;;;;5048557;28;20448;-66
2022/11/22 06:16:52;;;;;;;26.52;17.73;;;4.50;99.90;;;;;;5028387;28;20053;-66
2022/11/22 06:19:17;;;;;;;33.20;19.45;;;4.60;99.90;;;;;;5056789;28;20056;-70
2022/11/22 06:21:43;;;;;;;35.72;19.55;;;4.50;99.90;;;;;;5059298;28;20052;-70
2022/11/22 06:24:09;;;;;;;36.83;20.27;;;4.60;99.90;;;;;;5065947;28;20074;-71
2022/11/22 06:26:35;;;;;;;34.63;19.63;;;4.60;99.90;;;;;;5061651;28;20076;-71
2022/11/22 06:29:01;;;;;;;29.95;18.10;;;4.70;99.90;;;;;;5049671;28;20048;-70
2022/11/22 06:31:28;;;;;;;33.25;19.02;;;4.60;99.90;;;;;;5045677;28;20063;-72
2022/11/22 06:33:56;;;;;;;30.27;17.73;;;4.60;99.90;;;;;;5037783;28;20061;-72
2022/11/22 06:36:32;;;;;;;32.15;20.17;;;4.60;99.90;;;;;;5040519;28;20052;-71
2022/11/22 06:38:59;;;;;;;34.90;20.80;;;4.60;99.90;;;;;;5015422;28;20068;-72
2022/11/22 06:41:27;;;;;;;33.85;19.15;;;4.60;99.90;;;;;;5029485;28;20040;-72
2022/11/22 06:43:55;;;;;;;28.05;16.60;;;4.70;99.90;;;;;;5035069;28;20052;-71
2022/11/22 06:46:22;;;;;;;27.23;16.98;;;4.60;99.90;;;;;;5047240;28;20044;-71
2022/11/22 06:48:48;;;;;;;28.17;17.23;;;4.60;99.90;;;;;;5042505;28;20526;-71
2022/11/22 06:51:23;;;;;;;27.67;17.17;;;4.60;99.90;;;;;;5045042;28;20049;-72
2022/11/22 06:53:49;;;;;;;31.98;17.35;;;4.60;99.90;;;;;;5017822;28;20127;-72
2022/11/22 06:56:21;;;;;;;32.08;18.85;;;4.70;99.90;;;;;;5044292;28;20039;-71
2022/11/22 06:58:48;;;;;;;28.67;16.65;;;4.70;99.90;;;;;;5061063;28;20052;-69
2022/11/22 07:01:17;;;;;;;30.92;17.95;;;4.80;99.90;;;;;;5064146;28;20040;-71
2022/11/22 07:03:43;;;;;;;34.22;18.95;;;4.80;99.90;;;;;;5053992;28;20107;-66
2022/11/22 07:06:10;;;;;;;31.60;18.00;;;4.80;99.90;;;;;;5053895;28;20045;-66
2022/11/22 07:08:36;;;;;;;34.05;19.00;;;4.80;99.90;;;;;;5050874;28;20055;-66
2022/11/22 07:11:04;;;;;;;31.20;17.88;;;4.90;99.90;;;;;;5060896;28;20040;-66
2022/11/22 07:13:30;;;;;;;33.05;17.45;;;4.90;99.90;;;;;;5036892;28;20055;-65
2022/11/22 07:15:57;;;;;;;32.67;18.38;;;4.90;99.90;;;;;;5059675;28;20052;-66
2022/11/22 07:18:24;;;;;;;29.88;17.67;;;4.90;99.90;;;;;;5065573;28;20055;-66
2022/11/22 07:20:51;;;;;;;35.88;18.08;;;4.80;99.90;;;;;;5060086;28;20130;-67
2022/11/22 07:23:17;;;;;;;31.23;18.58;;;4.80;99.90;;;;;;5065750;28;20060;-66
2022/11/22 07:25:47;;;;;;;32.22;18.85;;;4.80;99.90;;;;;;5066004;28;20037;-66
2022/11/22 07:28:14;;;;;;;33.60;17.40;;;5.00;99.90;;;;;;5064479;28;20052;-68
2022/11/22 07:30:40;;;;;;;30.60;17.33;;;5.00;99.90;;;;;;5068118;28;20051;-66
2022/11/22 07:33:06;;;;;;;34.85;16.38;;;5.00;99.90;;;;;;5053372;28;20083;-66
2022/11/22 07:35:32;;;;;;;30.60;16.25;;;5.00;99.90;;;;;;5058199;28;20049;-66
2022/11/22 07:37:58;;;;;;;32.42;17.48;;;5.10;99.90;;;;;;5037769;28;20056;-66
2022/11/22 07:40:24;;;;;;;33.50;17.83;;;5.00;99.90;;;;;;5064829;28;20409;-66
2022/11/22 07:42:50;;;;;;;28.25;15.43;;;5.00;99.90;;;;;;5057293;28;20053;-66
2022/11/22 07:45:15;;;;;;;28.25;15.35;;;5.10;99.90;;;;;;5082290;28;20143;-65
2022/11/22 07:47:41;;;;;;;28.50;15.55;;;5.10;99.90;;;;;;5047492;28;20053;-66
2022/11/22 07:50:07;;;;;;;29.58;15.13;;;5.20;99.90;;;;;;5066161;28;20075;-66
2022/11/22 07:52:33;;;;;;;29.40;13.48;;;5.30;99.90;;;;;;5064682;28;20116;-66
2022/11/22 07:54:59;;;;;;;32.33;12.20;;;5.20;99.90;;;;;;5045273;28;20238;-66
2022/11/22 07:57:25;;;;;;;30.73;10.65;;;5.30;99.90;;;;;;5056675;28;20045;-66
2022/11/22 07:59:50;;;;;;;22.95;11.07;;;5.40;99.90;;;;;;5045387;28;20048;-66
2022/11/22 08:02:16;;;;;;;24.75;11.73;;;5.40;99.90;;;;;;5056393;28;20045;-66
2022/11/22 08:04:42;;;;;;;24.05;10.30;;;5.40;99.90;;;;;;5043854;28;20052;-66
2022/11/22 08:07:08;;;;;;;22.95;9.45;;;5.60;99.90;;;;;;5021329;28;20049;-66
2022/11/22 08:09:34;;;;;;;22.08;9.38;;;5.60;99.90;;;;;;5050607;28;20052;-67
2022/11/22 08:12:00;;;;;;;20.50;9.55;;;5.60;99.90;;;;;;5051528;28;20036;-66
2022/11/22 08:14:26;;;;;;;26.48;9.23;;;5.60;99.90;;;;;;5045667;28;20049;-66
2022/11/22 08:16:52;;;;;;;22.90;8.40;;;5.60;99.90;;;;;;5056379;28;20102;-66
2022/11/22 08:19:19;;;;;;;25.52;8.43;;;5.60;99.90;;;;;;5073384;28;20116;-66
2022/11/22 08:21:45;;;;;;;21.70;7.88;;;5.60;99.90;;;;;;5068058;28;20066;-66
2022/11/22 08:24:12;;;;;;;15.25;6.78;;;5.60;99.90;;;;;;5070232;28;20086;-65
2022/11/22 08:26:37;;;;;;;23.80;7.03;;;5.60;99.90;;;;;;5050225;28;20051;-66
2022/11/22 08:29:05;;;;;;;20.27;6.75;;;5.60;99.90;;;;;;5050779;28;20135;-66
2022/11/22 08:31:30;;;;;;;15.13;6.00;;;5.60;99.90;;;;;;5044071;28;20053;-66
2022/11/22 08:33:56;;;;;;;20.52;6.93;;;5.80;99.90;;;;;;5057165;28;20060;-66
2022/11/22 08:36:22;;;;;;;20.00;5.78;;;5.70;99.90;;;;;;5031911;28;20052;-66
2022/11/22 08:38:48;;;;;;;20.45;5.85;;;5.60;99.90;;;;;;5052001;28;20150;-65
2022/11/22 08:41:13;;;;;;;19.83;4.97;;;5.70;99.90;;;;;;5055381;28;20036;-66
2022/11/22 08:43:39;;;;;;;18.77;5.22;;;5.80;99.90;;;;;;5073490;28;20455;-66
2022/11/22 08:46:05;;;;;;;17.50;5.38;;;5.80;99.90;;;;;;5067094;28;20044;-66
2022/11/22 08:48:33;;;;;;;19.73;5.57;;;5.70;99.90;;;;;;5072375;28;20683;-66
2022/11/22 08:51:01;;;;;;;14.25;5.00;;;5.80;99.90;;;;;;5069467;28;20061;-66
2022/11/22 08:53:28;;;;;;;15.95;4.47;;;5.90;99.90;;;;;;5054625;28;20107;-66
2022/11/22 08:55:54;;;;;;;17.85;4.30;;;5.90;99.90;;;;;;5069490;28;20070;-66
2022/11/22 08:58:21;;;;;;;17.23;4.63;;;6.00;99.90;;;;;;5053427;28;20115;-66
2022/11/22 09:00:47;;;;;;;19.55;4.82;;;6.00;99.90;;;;;;5071373;28;20057;-66
2022/11/22 09:03:13;;;;;;;16.83;4.38;;;6.00;99.90;;;;;;5052930;28;20048;-66
2022/11/22 09:05:38;;;;;;;16.88;4.22;;;6.00;99.90;;;;;;5071182;28;20260;-66
2022/11/22 09:08:04;;;;;;;14.20;4.32;;;6.10;99.90;;;;;;5066805;28;20036;-66
2022/11/22 09:10:30;;;;;;;16.58;4.47;;;6.10;99.90;;;;;;5075920;28;20075;-66
2022/11/22 09:12:55;;;;;;;15.10;3.72;;;6.10;99.90;;;;;;5043150;28;20053;-66
2022/11/22 09:15:21;;;;;;;15.60;3.97;;;6.10;99.90;;;;;;5070723;28;20049;-66
2022/11/22 09:17:47;;;;;;;19.02;3.92;;;6.20;99.90;;;;;;5078994;28;20067;-66
2022/11/22 09:20:13;;;;;;;12.57;3.92;;;6.20;99.90;;;;;;5067227;28;20158;-66
2022/11/22 09:22:38;;;;;;;16.55;4.60;;;6.40;99.90;;;;;;5027271;28;20201;-67
2022/11/22 09:25:05;;;;;;;15.93;3.47;;;6.50;99.90;;;;;;5044588;28;20146;-68
2022/11/22 09:27:32;;;;;;;21.25;4.47;;;6.50;99.90;;;;;;5054068;28;20051;-66
2022/11/22 09:29:58;;;;;;;17.63;4.82;;;6.60;99.90;;;;;;5068162;28;20049;-66
2022/11/22 09:32:24;;;;;;;17.83;3.75;;;6.70;99.90;;;;;;5051729;28;20058;-66
2022/11/22 09:34:49;;;;;;;11.82;3.45;;;6.70;99.90;;;;;;5048186;28;20513;-66
2022/11/22 09:37:17;;;;;;;14.00;3.22;;;6.80;99.90;;;;;;5056759;28;20044;-66
2022/11/22 09:39:46;;;;;;;17.50;3.35;;;6.90;99.90;;;;;;5058282;28;20048;-65
2022/11/22 09:42:12;;;;;;;11.82;2.80;;;6.90;99.90;;;;;;5057929;28;20072;-65
2022/11/22 09:44:52;;;;;;;11.63;3.60;;;7.00;99.90;;;;;;5056196;28;20072;-66
2022/11/22 09:47:34;;;;;;;12.65;3.13;;;7.10;99.90;;;;;;5062275;28;20071;-66
2022/11/22 09:50:32;;;;;;;10.13;3.42;;;7.10;99.90;;;;;;5071793;28;20052;-66
2022/11/22 09:53:17;;;;;;;16.30;4.00;;;7.20;99.90;;;;;;5056152;28;20054;-69
2022/11/22 09:55:50;;;;;;;14.27;3.58;;;7.00;99.90;;;;;;5045771;28;20441;-65
2022/11/22 09:58:33;;;;;;;16.05;3.10;;;7.20;99.90;;;;;;5055813;28;20041;-66
2022/11/22 10:01:07;;;;;;;10.82;3.10;;;7.20;99.90;;;;;;5046496;28;20609;-66
2022/11/22 10:03:53;;;;;;;9.63;3.03;;;7.20;99.90;;;;;;5047461;28;20095;-65
2022/11/22 10:06:36;;;;;;;11.70;3.03;;;7.20;99.90;;;;;;5018521;28;20068;-66
2022/11/22 10:09:17;;;;;;;10.98;2.95;;;7.30;99.90;;;;;;5039696;28;20048;-66
2022/11/22 10:11:52;;;;;;;13.65;3.00;;;7.20;99.90;;;;;;5056570;28;20083;-66
2022/11/22 10:14:44;;;;;;;15.52;2.90;;;7.20;99.90;;;;;;5035161;28;20461;-66
2022/11/22 10:17:41;;;;;;;13.15;2.38;;;7.30;99.90;;;;;;5053605;28;20040;-65
2022/11/22 10:20:17;;;;;;;11.50;2.42;;;7.30;99.90;;;;;;5047255;28;20067;-66
2022/11/22 10:22:43;;;;;;;12.30;2.47;;;7.40;99.90;;;;;;5050978;28;20048;-66
2022/11/22 10:25:38;;;;;;;13.07;3.80;;;7.30;99.90;;;;;;5032729;28;20065;-66
2022/11/22 10:28:13;;;;;;;8.98;2.58;;;7.30;99.90;;;;;;5030956;28;20097;-67
2022/11/22 10:30:46;;;;;;;9.13;2.65;;;7.40;99.90;;;;;;5024823;28;20056;-65
2022/11/22 10:33:23;;;;;;;9.45;2.58;;;7.50;99.90;;;;;;5037872;28;20053;-66
2022/11/22 10:36:36;;;;;;;11.93;2.65;;;7.50;99.90;;;;;;5036062;28;20431;-65
2022/11/22 10:39:35;;;;;;;8.80;2.80;;;7.50;99.90;;;;;;4970706;28;20055;-66
2022/11/22 10:42:22;;;;;;;12.52;3.25;;;7.60;99.90;;;;;;4960930;28;20047;-66
2022/11/22 10:44:57;;;;;;;9.60;2.80;;;7.70;99.90;;;;;;4951439;28;20070;-66
2022/11/22 10:47:55;;;;;;;7.45;2.55;;;7.70;99.90;;;;;;4969803;28;20508;-66
2022/11/22 10:50:20;;;;;;;8.75;2.55;;;7.60;99.90;;;;;;4960207;28;20054;-67
2022/11/22 10:53:17;;;;;;;10.75;3.17;;;7.60;99.90;;;;;;4964636;28;20130;-66
2022/11/22 10:56:02;;;;;;;8.52;3.13;;;7.70;99.90;;;;;;4957193;28;20151;-66
2022/11/22 10:58:48;;;;;;;8.88;2.40;;;7.80;99.90;;;;;;4961572;28;20053;-66
2022/11/22 11:01:44;;;;;;;10.30;2.50;;;7.90;99.90;;;;;;4970253;28;20042;-66
2022/11/22 11:04:11;;;;;;;9.02;2.55;;;7.90;99.90;;;;;;4951100;28;20598;-66
2022/11/22 11:06:53;;;;;;;8.60;2.70;;;7.80;99.90;;;;;;4957839;28;20050;-66
2022/11/22 11:09:28;;;;;;;8.07;2.95;;;7.90;99.90;;;;;;4971376;28;20038;-66
2022/11/22 11:11:54;;;;;;;11.77;2.40;;;8.00;99.90;;;;;;5023351;28;20049;-66
2022/11/22 11:14:30;;;;;;;9.05;2.65;;;8.00;99.90;;;;;;5000969;28;20066;-66
2022/11/22 11:16:56;;;;;;;9.77;2.70;;;8.10;99.90;;;;;;5022133;28;20069;-66
2022/11/22 11:19:29;;;;;;;9.50;2.10;;;8.20;99.90;;;;;;5018527;28;20053;-66
2022/11/22 11:22:09;;;;;;;11.57;3.20;;;8.40;99.90;;;;;;5027280;28;20111;-66
2022/11/22 11:24:39;;;;;;;12.82;2.08;;;8.60;99.90;;;;;;5018867;28;20049;-66
2022/11/22 11:27:08;;;;;;;10.82;2.97;;;8.70;99.90;;;;;;5026925;28;20402;-65
2022/11/22 11:29:50;;;;;;;7.93;2.40;;;8.60;99.90;;;;;;5040818;28;20092;-66
2022/11/22 11:32:19;;;;;;;10.02;2.30;;;8.50;99.90;;;;;;5027711;28;20073;-66
2022/11/22 11:35:00;;;;;;;8.70;2.17;;;8.60;99.90;;;;;;4994586;28;20081;-66
2022/11/22 11:37:35;;;;;;;7.07;2.03;;;8.50;99.90;;;;;;5026011;28;20178;-66
2022/11/22 11:40:02;;;;;;;9.95;2.20;;;8.40;99.90;;;;;;5014369;28;20069;-66
2022/11/22 11:42:31;;;;;;;7.00;1.95;;;8.40;99.90;;;;;;5033451;28;20551;-66
2022/11/22 11:45:31;;;;;;;7.10;2.60;;;8.30;99.90;;;;;;5013687;28;20059;-66
2022/11/22 11:47:57;;;;;;;6.47;2.00;;;8.20;99.90;;;;;;5012427;28;20272;-66
2022/11/22 11:50:26;;;;;;;8.88;2.35;;;8.20;99.90;;;;;;5007650;28;20053;-66
2022/11/22 11:52:55;;;;;;;6.97;2.35;;;8.20;99.90;;;;;;5039201;28;20045;-66
2022/11/22 11:55:20;;;;;;;9.35;2.90;;;8.30;99.90;;;;;;5046494;28;20044;-66
2022/11/22 11:57:48;;;;;;;9.95;2.22;;;8.20;99.90;;;;;;5034316;28;20077;-66
2022/11/22 12:00:25;;;;;;;8.10;2.25;;;8.20;99.90;;;;;;5035093;28;20444;-67
2022/11/22 12:02:58;;;;;;;11.75;2.20;;;8.30;99.90;;;;;;5063340;28;20045;-66
2022/11/22 12:05:32;;;;;;;9.02;2.33;;;8.20;99.90;;;;;;5071086;28;20104;-66
2022/11/22 12:07:59;;;;;;;7.25;2.17;;;8.20;99.90;;;;;;5026209;28;20045;-65
2022/11/22 12:10:47;;;;;;;12.23;2.47;;;8.20;99.90;;;;;;5051461;28;20052;-66
2022/11/22 12:13:23;;;;;;;5.85;2.28;;;8.20;99.90;;;;;;5047896;28;20041;-66
2022/11/22 12:16:14;;;;;;;8.30;2.30;;;8.20;99.90;;;;;;5080860;28;20056;-66
2022/11/22 12:18:58;;;;;;;9.35;2.10;;;8.20;99.90;;;;;;5045683;28;20500;-66
2022/11/22 12:22:01;;;;;;;10.95;2.83;;;8.20;99.90;;;;;;5084487;28;20041;-66
2022/11/22 12:24:36;;;;;;;8.45;1.77;;;8.20;99.90;;;;;;5070937;28;20076;-66
2022/11/22 12:27:01;;;;;;;8.00;1.70;;;8.30;99.90;;;;;;5037047;28;20055;-66
2022/11/22 12:29:29;;;;;;;9.80;2.35;;;8.30;99.90;;;;;;5068600;28;20056;-66
2022/11/22 12:32:27;;;;;;;7.43;1.90;;;8.20;99.90;;;;;;5070247;28;20098;-66
2022/11/22 12:35:10;;;;;;;6.97;2.08;;;8.10;99.90;;;;;;5022687;28;20040;-66
2022/11/22 12:37:41;;;;;;;8.00;1.80;;;8.30;99.90;;;;;;5045674;28;20114;-66
2022/11/22 12:40:24;;;;;;;10.00;2.00;;;8.20;99.90;;;;;;5067117;28;20048;-66
2022/11/22 12:43:02;;;;;;;6.88;2.17;;;8.20;99.90;;;;;;5057096;28;20083;-66
2022/11/22 12:45:44;;;;;;;18.10;2.63;;;8.20;99.90;;;;;;5032972;28;20449;-66
2022/11/22 12:48:33;;;;;;;7.72;2.50;;;8.20;99.90;;;;;;5065387;28;20078;-66
2022/11/22 12:51:25;;;;;;;10.82;2.17;;;8.10;99.90;;;;;;5047968;28;20057;-67
2022/11/22 12:53:54;;;;;;;6.38;1.90;;;8.10;99.90;;;;;;5042752;28;20049;-66
2022/11/22 12:56:26;;;;;;;10.30;2.30;;;8.20;99.90;;;;;;5071982;28;20105;-66
2022/11/22 12:59:09;;;;;;;6.85;2.08;;;8.30;99.90;;;;;;5037123;28;20063;-66
2022/11/22 13:01:41;;;;;;;5.25;2.10;;;8.30;99.90;;;;;;5036999;28;20080;-66
2022/11/22 13:04:10;;;;;;;8.18;2.17;;;8.30;99.90;;;;;;5035158;28;20047;-66
2022/11/22 13:07:15;;;;;;;8.13;2.22;;;8.30;99.90;;;;;;5063809;28;20048;-67
2022/11/22 13:09:48;;;;;;;6.78;1.75;;;8.30;99.90;;;;;;4953138;28;20058;-65